Astatula, Florida
Current Conditions -  °F | °C
As of 3:53 AM on Friday 24 Oct 2014 (Local Time) from KLEE Reporting Station
Clear Clear  
Wind Chill: 59°   Ceiling: Unl
Heat Index: 59°   Visibility: 10mi
Dew Point: 53°   Wind: 7mph
Humidity: 81%   Direction: 40°NE
Pressure: 29.98"   Gusts: NA
Location:  28.71°N, 81.73°W
Report Text: KLEE 240753Z AUTO 04006KT 10SM CLR 15/12 A2998 RMK AO2 SLP152 T01500117
Loading
Personal Weather Stations






























Interactive Weather Map
Tropical Storm Tracking
New forecast layout! Learn more

10-Day Weather Forecast

Advertisements
Track Severe Weather on mobile